sensor_id;sensor_type;location;lat;lon;timestamp;P1;durP1;ratioP1;P2;durP2;ratioP2
15841;SDS011;8021;48.022;11.812;2022-11-03T00:01:01;0.40;;;0.40;;
15841;SDS011;8021;48.022;11.812;2022-11-03T00:03:29;0.40;;;0.40;;
15841;SDS011;8021;48.022;11.812;2022-11-03T00:05:56;0.30;;;0.30;;
15841;SDS011;8021;48.022;11.812;2022-11-03T00:08:33;0.30;;;0.30;;
15841;SDS011;8021;48.022;11.812;2022-11-03T00:11:05;0.40;;;0.40;;
15841;SDS011;8021;48.022;11.812;2022-11-03T00:13:35;0.35;;;0.35;;
15841;SDS011;8021;48.022;11.812;2022-11-03T00:16:03;0.40;;;0.40;;
15841;SDS011;8021;48.022;11.812;2022-11-03T00:18:30;0.50;;;0.50;;
15841;SDS011;8021;48.022;11.812;2022-11-03T00:20:58;0.40;;;0.40;;
15841;SDS011;8021;48.022;11.812;2022-11-03T00:23:27;0.30;;;0.30;;
15841;SDS011;8021;48.022;11.812;2022-11-03T00:26:02;0.40;;;0.40;;
15841;SDS011;8021;48.022;11.812;2022-11-03T00:28:30;0.40;;;0.40;;
15841;SDS011;8021;48.022;11.812;2022-11-03T00:31:00;0.30;;;0.30;;
15841;SDS011;8021;48.022;11.812;2022-11-03T00:33:29;0.30;;;0.30;;
15841;SDS011;8021;48.022;11.812;2022-11-03T00:35:57;0.40;;;0.40;;
15841;SDS011;8021;48.022;11.812;2022-11-03T00:38:25;0.38;;;0.38;;
15841;SDS011;8021;48.022;11.812;2022-11-03T00:40:53;0.30;;;0.30;;
15841;SDS011;8021;48.022;11.812;2022-11-03T00:43:21;0.40;;;0.40;;
15841;SDS011;8021;48.022;11.812;2022-11-03T00:45:48;0.30;;;0.30;;
15841;SDS011;8021;48.022;11.812;2022-11-03T00:48:17;0.40;;;0.40;;
15841;SDS011;8021;48.022;11.812;2022-11-03T00:51:00;0.30;;;0.30;;
15841;SDS011;8021;48.022;11.812;2022-11-03T00:53:28;0.38;;;0.38;;
15841;SDS011;8021;48.022;11.812;2022-11-03T00:55:56;0.30;;;0.30;;
15841;SDS011;8021;48.022;11.812;2022-11-03T00:58:23;0.40;;;0.40;;
15841;SDS011;8021;48.022;11.812;2022-11-03T01:00:57;0.30;;;0.30;;
15841;SDS011;8021;48.022;11.812;2022-11-03T01:03:26;0.40;;;0.40;;
15841;SDS011;8021;48.022;11.812;2022-11-03T01:05:53;0.30;;;0.30;;
15841;SDS011;8021;48.022;11.812;2022-11-03T01:08:38;0.30;;;0.30;;
15841;SDS011;8021;48.022;11.812;2022-11-03T01:11:06;0.40;;;0.40;;
15841;SDS011;8021;48.022;11.812;2022-11-03T01:13:52;0.50;;;0.50;;
15841;SDS011;8021;48.022;11.812;2022-11-03T01:16:19;0.40;;;0.40;;
15841;SDS011;8021;48.022;11.812;2022-11-03T01:18:48;0.30;;;0.30;;
15841;SDS011;8021;48.022;11.812;2022-11-03T01:21:16;0.30;;;0.30;;
15841;SDS011;8021;48.022;11.812;2022-11-03T01:23:44;0.38;;;0.38;;
15841;SDS011;8021;48.022;11.812;2022-11-03T01:26:12;0.30;;;0.30;;
15841;SDS011;8021;48.022;11.812;2022-11-03T01:32:02;0.30;;;0.30;;
15841;SDS011;8021;48.022;11.812;2022-11-03T01:34:31;0.40;;;0.40;;
15841;SDS011;8021;48.022;11.812;2022-11-03T01:36:59;0.40;;;0.40;;
15841;SDS011;8021;48.022;11.812;2022-11-03T01:39:27;0.30;;;0.30;;
15841;SDS011;8021;48.022;11.812;2022-11-03T01:41:55;0.30;;;0.30;;
15841;SDS011;8021;48.022;11.812;2022-11-03T01:44:24;0.30;;;0.30;;
15841;SDS011;8021;48.022;11.812;2022-11-03T01:46:52;0.30;;;0.30;;
15841;SDS011;8021;48.022;11.812;2022-11-03T01:49:23;0.30;;;0.30;;
15841;SDS011;8021;48.022;11.812;2022-11-03T01:51:53;0.30;;;0.30;;
15841;SDS011;8021;48.022;11.812;2022-11-03T01:54:23;0.30;;;0.30;;
15841;SDS011;8021;48.022;11.812;2022-11-03T01:56:53;0.30;;;0.30;;
15841;SDS011;8021;48.022;11.812;2022-11-03T01:59:21;0.30;;;0.30;;
15841;SDS011;8021;48.022;11.812;2022-11-03T02:01:56;0.40;;;0.40;;
15841;SDS011;8021;48.022;11.812;2022-11-03T02:04:25;0.30;;;0.30;;
15841;SDS011;8021;48.022;11.812;2022-11-03T02:06:56;0.30;;;0.30;;
15841;SDS011;8021;48.022;11.812;2022-11-03T02:09:24;0.30;;;0.30;;
15841;SDS011;8021;48.022;11.812;2022-11-03T02:11:53;0.30;;;0.30;;
15841;SDS011;8021;48.022;11.812;2022-11-03T02:14:33;0.30;;;0.30;;
15841;SDS011;8021;48.022;11.812;2022-11-03T02:17:02;0.30;;;0.30;;
15841;SDS011;8021;48.022;11.812;2022-11-03T02:19:33;0.30;;;0.30;;
15841;SDS011;8021;48.022;11.812;2022-11-03T02:22:05;0.30;;;0.30;;
15841;SDS011;8021;48.022;11.812;2022-11-03T02:24:36;0.40;;;0.40;;
15841;SDS011;8021;48.022;11.812;2022-11-03T02:27:08;0.40;;;0.40;;
15841;SDS011;8021;48.022;11.812;2022-11-03T02:29:36;0.30;;;0.30;;
15841;SDS011;8021;48.022;11.812;2022-11-03T02:32:04;0.30;;;0.30;;
15841;SDS011;8021;48.022;11.812;2022-11-03T02:34:35;0.40;;;0.40;;
15841;SDS011;8021;48.022;11.812;2022-11-03T02:37:07;0.32;;;0.32;;
15841;SDS011;8021;48.022;11.812;2022-11-03T02:39:37;0.50;;;0.50;;
15841;SDS011;8021;48.022;11.812;2022-11-03T02:42:06;0.38;;;0.38;;
15841;SDS011;8021;48.022;11.812;2022-11-03T02:44:36;0.30;;;0.30;;
15841;SDS011;8021;48.022;11.812;2022-11-03T02:47:05;0.40;;;0.40;;
15841;SDS011;8021;48.022;11.812;2022-11-03T02:49:36;0.30;;;0.30;;
15841;SDS011;8021;48.022;11.812;2022-11-03T02:52:04;0.30;;;0.30;;
15841;SDS011;8021;48.022;11.812;2022-11-03T02:54:32;0.30;;;0.30;;
15841;SDS011;8021;48.022;11.812;2022-11-03T02:57:02;0.30;;;0.30;;
15841;SDS011;8021;48.022;11.812;2022-11-03T02:59:33;0.30;;;0.30;;
15841;SDS011;8021;48.022;11.812;2022-11-03T03:02:05;0.30;;;0.30;;
15841;SDS011;8021;48.022;11.812;2022-11-03T03:04:36;0.40;;;0.40;;
15841;SDS011;8021;48.022;11.812;2022-11-03T03:07:05;0.30;;;0.30;;
15841;SDS011;8021;48.022;11.812;2022-11-03T03:09:36;0.30;;;0.30;;
15841;SDS011;8021;48.022;11.812;2022-11-03T03:12:05;0.30;;;0.30;;
15841;SDS011;8021;48.022;11.812;2022-11-03T03:14:35;0.30;;;0.30;;
15841;SDS011;8021;48.022;11.812;2022-11-03T03:17:06;0.40;;;0.40;;
15841;SDS011;8021;48.022;11.812;2022-11-03T03:19:37;0.32;;;0.32;;
15841;SDS011;8021;48.022;11.812;2022-11-03T03:22:10;0.30;;;0.30;;
15841;SDS011;8021;48.022;11.812;2022-11-03T03:24:43;0.40;;;0.40;;
15841;SDS011;8021;48.022;11.812;2022-11-03T03:27:12;0.40;;;0.40;;
15841;SDS011;8021;48.022;11.812;2022-11-03T03:29:40;0.30;;;0.30;;
15841;SDS011;8021;48.022;11.812;2022-11-03T03:32:10;0.40;;;0.40;;
15841;SDS011;8021;48.022;11.812;2022-11-03T03:34:39;0.40;;;0.40;;
15841;SDS011;8021;48.022;11.812;2022-11-03T03:37:07;0.32;;;0.32;;
15841;SDS011;8021;48.022;11.812;2022-11-03T03:39:37;0.38;;;0.38;;
15841;SDS011;8021;48.022;11.812;2022-11-03T03:42:05;0.40;;;0.40;;
15841;SDS011;8021;48.022;11.812;2022-11-03T03:44:34;0.30;;;0.30;;
15841;SDS011;8021;48.022;11.812;2022-11-03T03:47:05;0.30;;;0.30;;
15841;SDS011;8021;48.022;11.812;2022-11-03T03:49:35;0.30;;;0.30;;
15841;SDS011;8021;48.022;11.812;2022-11-03T03:52:03;0.40;;;0.40;;
15841;SDS011;8021;48.022;11.812;2022-11-03T03:54:30;0.40;;;0.40;;
15841;SDS011;8021;48.022;11.812;2022-11-03T03:56:58;0.40;;;0.40;;
15841;SDS011;8021;48.022;11.812;2022-11-03T03:59:27;0.40;;;0.40;;
15841;SDS011;8021;48.022;11.812;2022-11-03T04:01:55;0.40;;;0.40;;
15841;SDS011;8021;48.022;11.812;2022-11-03T04:04:22;0.40;;;0.40;;
15841;SDS011;8021;48.022;11.812;2022-11-03T04:06:51;0.40;;;0.40;;
15841;SDS011;8021;48.022;11.812;2022-11-03T04:09:39;0.40;;;0.40;;
15841;SDS011;8021;48.022;11.812;2022-11-03T04:12:06;0.40;;;0.40;;
15841;SDS011;8021;48.022;11.812;2022-11-03T04:14:52;0.40;;;0.40;;
15841;SDS011;8021;48.022;11.812;2022-11-03T04:17:37;0.40;;;0.40;;
15841;SDS011;8021;48.022;11.812;2022-11-03T04:20:23;0.40;;;0.40;;
15841;SDS011;8021;48.022;11.812;2022-11-03T04:23:10;0.35;;;0.35;;
15841;SDS011;8021;48.022;11.812;2022-11-03T04:25:38;0.38;;;0.38;;
15841;SDS011;8021;48.022;11.812;2022-11-03T04:28:07;0.30;;;0.30;;
15841;SDS011;8021;48.022;11.812;2022-11-03T04:30:35;0.40;;;0.40;;
15841;SDS011;8021;48.022;11.812;2022-11-03T04:33:03;0.30;;;0.30;;
15841;SDS011;8021;48.022;11.812;2022-11-03T04:35:31;0.35;;;0.35;;
15841;SDS011;8021;48.022;11.812;2022-11-03T04:37:59;0.30;;;0.30;;
15841;SDS011;8021;48.022;11.812;2022-11-03T04:40:29;0.40;;;0.40;;
15841;SDS011;8021;48.022;11.812;2022-11-03T04:42:56;0.50;;;0.50;;
15841;SDS011;8021;48.022;11.812;2022-11-03T04:45:25;0.30;;;0.30;;
15841;SDS011;8021;48.022;11.812;2022-11-03T04:47:54;0.40;;;0.40;;
15841;SDS011;8021;48.022;11.812;2022-11-03T04:50:22;0.40;;;0.40;;
15841;SDS011;8021;48.022;11.812;2022-11-03T04:52:50;0.32;;;0.32;;
15841;SDS011;8021;48.022;11.812;2022-11-03T04:55:18;0.50;;;0.50;;
15841;SDS011;8021;48.022;11.812;2022-11-03T04:57:47;0.50;;;0.50;;
15841;SDS011;8021;48.022;11.812;2022-11-03T05:00:20;0.70;;;0.70;;
15841;SDS011;8021;48.022;11.812;2022-11-03T05:02:48;0.35;;;0.35;;
15841;SDS011;8021;48.022;11.812;2022-11-03T05:05:22;0.40;;;0.40;;
15841;SDS011;8021;48.022;11.812;2022-11-03T05:07:50;0.40;;;0.40;;
15841;SDS011;8021;48.022;11.812;2022-11-03T05:10:18;0.60;;;0.60;;
15841;SDS011;8021;48.022;11.812;2022-11-03T05:12:48;0.40;;;0.40;;
15841;SDS011;8021;48.022;11.812;2022-11-03T05:15:26;0.40;;;0.40;;
15841;SDS011;8021;48.022;11.812;2022-11-03T05:17:54;0.40;;;0.40;;
15841;SDS011;8021;48.022;11.812;2022-11-03T05:20:24;0.50;;;0.50;;
15841;SDS011;8021;48.022;11.812;2022-11-03T05:23:00;0.52;;;0.52;;
15841;SDS011;8021;48.022;11.812;2022-11-03T05:25:36;0.40;;;0.40;;
15841;SDS011;8021;48.022;11.812;2022-11-03T05:28:09;0.40;;;0.40;;
15841;SDS011;8021;48.022;11.812;2022-11-03T05:30:40;0.50;;;0.50;;
15841;SDS011;8021;48.022;11.812;2022-11-03T05:33:14;0.30;;;0.30;;
15841;SDS011;8021;48.022;11.812;2022-11-03T05:35:41;0.40;;;0.40;;
15841;SDS011;8021;48.022;11.812;2022-11-03T05:38:09;0.40;;;0.40;;
15841;SDS011;8021;48.022;11.812;2022-11-03T05:40:38;0.40;;;0.40;;
15841;SDS011;8021;48.022;11.812;2022-11-03T05:43:07;0.45;;;0.45;;
15841;SDS011;8021;48.022;11.812;2022-11-03T05:45:38;0.47;;;0.47;;
15841;SDS011;8021;48.022;11.812;2022-11-03T05:48:10;0.40;;;0.40;;
15841;SDS011;8021;48.022;11.812;2022-11-03T05:50:39;0.50;;;0.50;;
15841;SDS011;8021;48.022;11.812;2022-11-03T05:53:11;0.50;;;0.50;;
15841;SDS011;8021;48.022;11.812;2022-11-03T05:55:40;0.40;;;0.40;;
15841;SDS011;8021;48.022;11.812;2022-11-03T05:58:11;0.40;;;0.40;;
15841;SDS011;8021;48.022;11.812;2022-11-03T06:00:41;0.40;;;0.40;;
15841;SDS011;8021;48.022;11.812;2022-11-03T06:03:14;0.40;;;0.40;;
15841;SDS011;8021;48.022;11.812;2022-11-03T06:05:42;0.60;;;0.60;;
15841;SDS011;8021;48.022;11.812;2022-11-03T06:08:11;0.50;;;0.50;;
15841;SDS011;8021;48.022;11.812;2022-11-03T06:10:41;0.60;;;0.60;;
15841;SDS011;8021;48.022;11.812;2022-11-03T06:13:12;0.40;;;0.40;;
15841;SDS011;8021;48.022;11.812;2022-11-03T06:15:44;0.40;;;0.40;;
15841;SDS011;8021;48.022;11.812;2022-11-03T06:18:13;0.40;;;0.40;;
15841;SDS011;8021;48.022;11.812;2022-11-03T06:20:41;0.57;;;0.57;;
15841;SDS011;8021;48.022;11.812;2022-11-03T06:23:10;0.43;;;0.43;;
15841;SDS011;8021;48.022;11.812;2022-11-03T06:25:40;0.40;;;0.40;;
15841;SDS011;8021;48.022;11.812;2022-11-03T06:28:10;0.40;;;0.40;;
15841;SDS011;8021;48.022;11.812;2022-11-03T06:30:41;0.40;;;0.40;;
15841;SDS011;8021;48.022;11.812;2022-11-03T06:33:12;0.43;;;0.43;;
15841;SDS011;8021;48.022;11.812;2022-11-03T06:35:41;0.40;;;0.40;;
15841;SDS011;8021;48.022;11.812;2022-11-03T06:38:11;0.40;;;0.40;;
15841;SDS011;8021;48.022;11.812;2022-11-03T06:40:41;0.50;;;0.50;;
15841;SDS011;8021;48.022;11.812;2022-11-03T06:43:18;0.47;;;0.47;;
15841;SDS011;8021;48.022;11.812;2022-11-03T06:45:50;0.47;;;0.47;;
15841;SDS011;8021;48.022;11.812;2022-11-03T06:48:25;0.50;;;0.50;;
15841;SDS011;8021;48.022;11.812;2022-11-03T06:50:54;0.35;;;0.35;;
15841;SDS011;8021;48.022;11.812;2022-11-03T06:53:22;0.40;;;0.40;;
15841;SDS011;8021;48.022;11.812;2022-11-03T06:55:51;0.38;;;0.38;;
15841;SDS011;8021;48.022;11.812;2022-11-03T06:58:22;0.50;;;0.50;;
15841;SDS011;8021;48.022;11.812;2022-11-03T07:00:51;0.40;;;0.40;;
15841;SDS011;8021;48.022;11.812;2022-11-03T07:03:56;0.40;;;0.40;;
15841;SDS011;8021;48.022;11.812;2022-11-03T07:06:24;0.30;;;0.30;;
15841;SDS011;8021;48.022;11.812;2022-11-03T07:08:54;0.63;;;0.63;;
15841;SDS011;8021;48.022;11.812;2022-11-03T07:11:22;0.30;;;0.30;;
15841;SDS011;8021;48.022;11.812;2022-11-03T07:13:50;0.40;;;0.40;;
15841;SDS011;8021;48.022;11.812;2022-11-03T07:16:21;0.50;;;0.50;;
15841;SDS011;8021;48.022;11.812;2022-11-03T07:18:50;0.50;;;0.50;;
15841;SDS011;8021;48.022;11.812;2022-11-03T07:21:27;0.30;;;0.30;;
15841;SDS011;8021;48.022;11.812;2022-11-03T07:23:57;0.30;;;0.30;;
15841;SDS011;8021;48.022;11.812;2022-11-03T07:26:25;0.40;;;0.40;;
15841;SDS011;8021;48.022;11.812;2022-11-03T07:28:53;0.40;;;0.40;;
15841;SDS011;8021;48.022;11.812;2022-11-03T07:31:22;0.40;;;0.40;;
15841;SDS011;8021;48.022;11.812;2022-11-03T07:33:52;0.35;;;0.35;;
15841;SDS011;8021;48.022;11.812;2022-11-03T07:36:21;0.30;;;0.30;;
15841;SDS011;8021;48.022;11.812;2022-11-03T07:38:51;0.30;;;0.30;;
15841;SDS011;8021;48.022;11.812;2022-11-03T07:41:20;0.30;;;0.30;;
15841;SDS011;8021;48.022;11.812;2022-11-03T07:43:49;0.30;;;0.30;;
15841;SDS011;8021;48.022;11.812;2022-11-03T07:46:19;0.30;;;0.30;;
15841;SDS011;8021;48.022;11.812;2022-11-03T07:48:47;0.30;;;0.30;;
15841;SDS011;8021;48.022;11.812;2022-11-03T07:51:17;0.20;;;0.20;;
15841;SDS011;8021;48.022;11.812;2022-11-03T07:53:46;0.30;;;0.20;;
15841;SDS011;8021;48.022;11.812;2022-11-03T07:56:17;0.30;;;0.20;;
15841;SDS011;8021;48.022;11.812;2022-11-03T07:58:48;0.20;;;0.20;;
15841;SDS011;8021;48.022;11.812;2022-11-03T08:01:26;0.20;;;0.20;;
15841;SDS011;8021;48.022;11.812;2022-11-03T08:03:55;0.10;;;0.10;;
15841;SDS011;8021;48.022;11.812;2022-11-03T08:06:23;0.20;;;0.10;;
15841;SDS011;8021;48.022;11.812;2022-11-03T08:08:51;0.20;;;0.10;;
15841;SDS011;8021;48.022;11.812;2022-11-03T08:11:19;0.10;;;0.10;;
15841;SDS011;8021;48.022;11.812;2022-11-03T08:13:54;0.10;;;0.10;;
15841;SDS011;8021;48.022;11.812;2022-11-03T08:16:21;0.10;;;0.10;;
15841;SDS011;8021;48.022;11.812;2022-11-03T08:18:49;0.20;;;0.20;;
15841;SDS011;8021;48.022;11.812;2022-11-03T08:21:16;0.13;;;0.13;;
15841;SDS011;8021;48.022;11.812;2022-11-03T08:23:44;0.20;;;0.20;;
15841;SDS011;8021;48.022;11.812;2022-11-03T08:26:13;0.20;;;0.20;;
15841;SDS011;8021;48.022;11.812;2022-11-03T08:28:42;0.13;;;0.10;;
15841;SDS011;8021;48.022;11.812;2022-11-03T08:31:09;0.17;;;0.10;;
15841;SDS011;8021;48.022;11.812;2022-11-03T08:33:38;0.10;;;0.10;;
15841;SDS011;8021;48.022;11.812;2022-11-03T08:36:06;0.10;;;0.10;;
15841;SDS011;8021;48.022;11.812;2022-11-03T08:38:34;0.10;;;0.10;;
15841;SDS011;8021;48.022;11.812;2022-11-03T08:41:02;0.15;;;0.15;;
15841;SDS011;8021;48.022;11.812;2022-11-03T08:43:30;0.10;;;0.10;;
15841;SDS011;8021;48.022;11.812;2022-11-03T08:45:59;0.20;;;0.10;;
15841;SDS011;8021;48.022;11.812;2022-11-03T08:48:35;0.20;;;0.10;;
15841;SDS011;8021;48.022;11.812;2022-11-03T08:51:02;0.20;;;0.20;;
15841;SDS011;8021;48.022;11.812;2022-11-03T08:53:30;0.20;;;0.10;;
15841;SDS011;8021;48.022;11.812;2022-11-03T08:55:57;0.20;;;0.20;;
15841;SDS011;8021;48.022;11.812;2022-11-03T08:58:25;0.30;;;0.30;;
15841;SDS011;8021;48.022;11.812;2022-11-03T09:00:52;0.20;;;0.15;;
15841;SDS011;8021;48.022;11.812;2022-11-03T09:03:21;0.30;;;0.20;;
15841;SDS011;8021;48.022;11.812;2022-11-03T09:05:49;0.30;;;0.22;;
15841;SDS011;8021;48.022;11.812;2022-11-03T09:08:16;0.30;;;0.20;;
15841;SDS011;8021;48.022;11.812;2022-11-03T09:11:04;0.30;;;0.30;;
15841;SDS011;8021;48.022;11.812;2022-11-03T09:13:31;0.30;;;0.20;;
15841;SDS011;8021;48.022;11.812;2022-11-03T09:15:59;0.25;;;0.25;;
15841;SDS011;8021;48.022;11.812;2022-11-03T09:18:28;0.30;;;0.30;;
15841;SDS011;8021;48.022;11.812;2022-11-03T09:20:55;0.30;;;0.20;;
15841;SDS011;8021;48.022;11.812;2022-11-03T09:23:23;0.30;;;0.30;;
15841;SDS011;8021;48.022;11.812;2022-11-03T09:25:50;0.30;;;0.30;;
15841;SDS011;8021;48.022;11.812;2022-11-03T09:28:18;0.30;;;0.20;;
15841;SDS011;8021;48.022;11.812;2022-11-03T09:30:45;0.30;;;0.25;;
15841;SDS011;8021;48.022;11.812;2022-11-03T09:33:13;0.30;;;0.30;;
15841;SDS011;8021;48.022;11.812;2022-11-03T09:35:42;0.30;;;0.22;;
15841;SDS011;8021;48.022;11.812;2022-11-03T09:38:09;0.30;;;0.30;;
15841;SDS011;8021;48.022;11.812;2022-11-03T09:40:37;0.30;;;0.30;;
15841;SDS011;8021;48.022;11.812;2022-11-03T09:43:04;0.30;;;0.30;;
15841;SDS011;8021;48.022;11.812;2022-11-03T09:45:32;0.30;;;0.25;;
15841;SDS011;8021;48.022;11.812;2022-11-03T09:47:59;0.30;;;0.20;;
15841;SDS011;8021;48.022;11.812;2022-11-03T09:50:27;0.30;;;0.30;;
15841;SDS011;8021;48.022;11.812;2022-11-03T09:52:56;0.32;;;0.32;;
15841;SDS011;8021;48.022;11.812;2022-11-03T09:55:24;0.30;;;0.30;;
15841;SDS011;8021;48.022;11.812;2022-11-03T09:57:53;0.38;;;0.38;;
15841;SDS011;8021;48.022;11.812;2022-11-03T10:00:22;0.40;;;0.40;;
15841;SDS011;8021;48.022;11.812;2022-11-03T10:02:50;0.30;;;0.30;;
15841;SDS011;8021;48.022;11.812;2022-11-03T10:05:18;0.30;;;0.30;;
15841;SDS011;8021;48.022;11.812;2022-11-03T10:07:46;0.45;;;0.45;;
15841;SDS011;8021;48.022;11.812;2022-11-03T10:10:16;0.40;;;0.40;;
15841;SDS011;8021;48.022;11.812;2022-11-03T10:12:47;0.40;;;0.40;;
15841;SDS011;8021;48.022;11.812;2022-11-03T10:15:15;0.40;;;0.40;;
15841;SDS011;8021;48.022;11.812;2022-11-03T10:17:43;0.30;;;0.30;;
15841;SDS011;8021;48.022;11.812;2022-11-03T10:20:11;0.30;;;0.30;;
15841;SDS011;8021;48.022;11.812;2022-11-03T10:22:39;0.30;;;0.30;;
15841;SDS011;8021;48.022;11.812;2022-11-03T10:27:57;0.40;;;0.40;;
15841;SDS011;8021;48.022;11.812;2022-11-03T10:30:46;0.20;;;0.20;;
15841;SDS011;8021;48.022;11.812;2022-11-03T10:33:35;0.25;;;0.25;;
15841;SDS011;8021;48.022;11.812;2022-11-03T10:36:03;0.30;;;0.30;;
15841;SDS011;8021;48.022;11.812;2022-11-03T10:38:32;0.30;;;0.28;;
15841;SDS011;8021;48.022;11.812;2022-11-03T10:41:09;0.30;;;0.20;;
15841;SDS011;8021;48.022;11.812;2022-11-03T10:43:39;0.30;;;0.22;;
15841;SDS011;8021;48.022;11.812;2022-11-03T10:46:10;0.30;;;0.20;;
15841;SDS011;8021;48.022;11.812;2022-11-03T10:49:02;0.30;;;0.30;;
15841;SDS011;8021;48.022;11.812;2022-11-03T10:51:31;0.40;;;0.40;;
15841;SDS011;8021;48.022;11.812;2022-11-03T10:54:00;0.30;;;0.30;;
15841;SDS011;8021;48.022;11.812;2022-11-03T10:56:27;0.30;;;0.30;;
15841;SDS011;8021;48.022;11.812;2022-11-03T10:58:56;0.35;;;0.35;;
15841;SDS011;8021;48.022;11.812;2022-11-03T11:01:25;0.30;;;0.30;;
15841;SDS011;8021;48.022;11.812;2022-11-03T11:03:52;0.30;;;0.30;;
15841;SDS011;8021;48.022;11.812;2022-11-03T11:06:21;0.30;;;0.30;;
15841;SDS011;8021;48.022;11.812;2022-11-03T11:08:50;0.30;;;0.30;;
15841;SDS011;8021;48.022;11.812;2022-11-03T11:11:25;0.30;;;0.30;;
15841;SDS011;8021;48.022;11.812;2022-11-03T11:16:50;0.20;;;0.20;;
15841;SDS011;8021;48.022;11.812;2022-11-03T11:19:17;0.30;;;0.20;;
15841;SDS011;8021;48.022;11.812;2022-11-03T11:21:49;0.30;;;0.30;;
15841;SDS011;8021;48.022;11.812;2022-11-03T11:27:18;0.30;;;0.30;;
15841;SDS011;8021;48.022;11.812;2022-11-03T11:30:12;0.22;;;0.20;;
15841;SDS011;8021;48.022;11.812;2022-11-03T11:32:58;0.30;;;0.30;;
15841;SDS011;8021;48.022;11.812;2022-11-03T11:40:59;0.30;;;0.30;;
15841;SDS011;8021;48.022;11.812;2022-11-03T11:43:26;0.30;;;0.30;;
15841;SDS011;8021;48.022;11.812;2022-11-03T11:48:41;0.30;;;0.30;;
15841;SDS011;8021;48.022;11.812;2022-11-03T11:51:09;0.30;;;0.30;;
15841;SDS011;8021;48.022;11.812;2022-11-03T11:53:37;0.30;;;0.30;;
15841;SDS011;8021;48.022;11.812;2022-11-03T11:56:07;0.30;;;0.30;;
15841;SDS011;8021;48.022;11.812;2022-11-03T11:58:37;0.30;;;0.30;;
15841;SDS011;8021;48.022;11.812;2022-11-03T12:01:18;0.30;;;0.20;;
15841;SDS011;8021;48.022;11.812;2022-11-03T12:03:48;0.30;;;0.30;;
15841;SDS011;8021;48.022;11.812;2022-11-03T12:06:17;0.30;;;0.30;;
15841;SDS011;8021;48.022;11.812;2022-11-03T12:09:02;0.30;;;0.30;;
15841;SDS011;8021;48.022;11.812;2022-11-03T12:11:39;0.30;;;0.28;;
15841;SDS011;8021;48.022;11.812;2022-11-03T12:14:21;0.30;;;0.30;;
15841;SDS011;8021;48.022;11.812;2022-11-03T12:16:49;0.30;;;0.30;;
15841;SDS011;8021;48.022;11.812;2022-11-03T12:19:38;0.30;;;0.20;;
15841;SDS011;8021;48.022;11.812;2022-11-03T12:22:09;0.30;;;0.20;;
15841;SDS011;8021;48.022;11.812;2022-11-03T12:24:47;0.30;;;0.30;;
15841;SDS011;8021;48.022;11.812;2022-11-03T12:30:02;0.30;;;0.20;;
15841;SDS011;8021;48.022;11.812;2022-11-03T12:32:30;0.30;;;0.20;;
15841;SDS011;8021;48.022;11.812;2022-11-03T12:35:02;0.30;;;0.20;;
15841;SDS011;8021;48.022;11.812;2022-11-03T12:37:30;0.20;;;0.20;;
15841;SDS011;8021;48.022;11.812;2022-11-03T12:39:57;0.20;;;0.20;;
15841;SDS011;8021;48.022;11.812;2022-11-03T12:42:25;0.20;;;0.20;;
15841;SDS011;8021;48.022;11.812;2022-11-03T12:44:52;0.30;;;0.20;;
15841;SDS011;8021;48.022;11.812;2022-11-03T12:47:21;0.20;;;0.20;;
15841;SDS011;8021;48.022;11.812;2022-11-03T12:49:48;0.30;;;0.25;;
15841;SDS011;8021;48.022;11.812;2022-11-03T12:52:17;0.20;;;0.20;;
15841;SDS011;8021;48.022;11.812;2022-11-03T12:54:44;0.30;;;0.20;;
15841;SDS011;8021;48.022;11.812;2022-11-03T12:57:12;0.30;;;0.20;;
15841;SDS011;8021;48.022;11.812;2022-11-03T12:59:40;0.20;;;0.20;;
15841;SDS011;8021;48.022;11.812;2022-11-03T13:02:07;0.30;;;0.30;;
15841;SDS011;8021;48.022;11.812;2022-11-03T13:04:36;0.30;;;0.20;;
15841;SDS011;8021;48.022;11.812;2022-11-03T13:10:01;0.20;;;0.20;;
15841;SDS011;8021;48.022;11.812;2022-11-03T13:12:30;0.30;;;0.20;;
15841;SDS011;8021;48.022;11.812;2022-11-03T13:14:57;0.30;;;0.30;;
15841;SDS011;8021;48.022;11.812;2022-11-03T13:17:25;0.20;;;0.20;;
15841;SDS011;8021;48.022;11.812;2022-11-03T13:20:11;0.30;;;0.30;;
15841;SDS011;8021;48.022;11.812;2022-11-03T13:22:41;0.20;;;0.20;;
15841;SDS011;8021;48.022;11.812;2022-11-03T13:25:10;0.30;;;0.30;;
15841;SDS011;8021;48.022;11.812;2022-11-03T13:27:37;0.20;;;0.20;;
15841;SDS011;8021;48.022;11.812;2022-11-03T13:30:05;0.30;;;0.20;;
15841;SDS011;8021;48.022;11.812;2022-11-03T13:32:33;0.30;;;0.20;;
15841;SDS011;8021;48.022;11.812;2022-11-03T13:35:00;0.30;;;0.30;;
15841;SDS011;8021;48.022;11.812;2022-11-03T13:37:28;0.20;;;0.20;;
15841;SDS011;8021;48.022;11.812;2022-11-03T13:39:55;0.20;;;0.20;;
15841;SDS011;8021;48.022;11.812;2022-11-03T13:42:24;0.20;;;0.20;;
15841;SDS011;8021;48.022;11.812;2022-11-03T13:44:51;0.25;;;0.22;;
15841;SDS011;8021;48.022;11.812;2022-11-03T13:47:19;0.25;;;0.20;;
15841;SDS011;8021;48.022;11.812;2022-11-03T13:50:07;0.30;;;0.30;;
15841;SDS011;8021;48.022;11.812;2022-11-03T13:52:43;0.20;;;0.20;;
15841;SDS011;8021;48.022;11.812;2022-11-03T13:55:10;0.20;;;0.20;;
15841;SDS011;8021;48.022;11.812;2022-11-03T13:57:59;0.20;;;0.20;;
15841;SDS011;8021;48.022;11.812;2022-11-03T14:00:47;0.30;;;0.30;;
15841;SDS011;8021;48.022;11.812;2022-11-03T14:03:14;0.20;;;0.20;;
15841;SDS011;8021;48.022;11.812;2022-11-03T14:06:02;0.30;;;0.30;;
15841;SDS011;8021;48.022;11.812;2022-11-03T14:08:29;0.20;;;0.20;;
15841;SDS011;8021;48.022;11.812;2022-11-03T14:10:57;0.20;;;0.20;;
15841;SDS011;8021;48.022;11.812;2022-11-03T14:13:26;0.30;;;0.30;;
15841;SDS011;8021;48.022;11.812;2022-11-03T14:15:53;0.30;;;0.20;;
15841;SDS011;8021;48.022;11.812;2022-11-03T14:18:21;0.30;;;0.28;;
15841;SDS011;8021;48.022;11.812;2022-11-03T14:20:49;0.30;;;0.30;;
15841;SDS011;8021;48.022;11.812;2022-11-03T14:23:16;0.30;;;0.20;;
15841;SDS011;8021;48.022;11.812;2022-11-03T14:25:44;0.30;;;0.20;;
15841;SDS011;8021;48.022;11.812;2022-11-03T14:28:27;0.20;;;0.20;;
15841;SDS011;8021;48.022;11.812;2022-11-03T14:30:54;0.20;;;0.20;;
15841;SDS011;8021;48.022;11.812;2022-11-03T14:33:24;0.20;;;0.20;;
15841;SDS011;8021;48.022;11.812;2022-11-03T14:35:52;0.20;;;0.20;;
15841;SDS011;8021;48.022;11.812;2022-11-03T14:38:19;0.30;;;0.30;;
15841;SDS011;8021;48.022;11.812;2022-11-03T14:40:47;0.30;;;0.30;;
15841;SDS011;8021;48.022;11.812;2022-11-03T14:43:33;0.30;;;0.28;;
15841;SDS011;8021;48.022;11.812;2022-11-03T14:46:01;0.30;;;0.30;;
15841;SDS011;8021;48.022;11.812;2022-11-03T14:48:28;0.30;;;0.28;;
15841;SDS011;8021;48.022;11.812;2022-11-03T14:50:56;0.30;;;0.20;;
15841;SDS011;8021;48.022;11.812;2022-11-03T14:53:23;0.30;;;0.30;;
15841;SDS011;8021;48.022;11.812;2022-11-03T14:55:51;0.30;;;0.20;;
15841;SDS011;8021;48.022;11.812;2022-11-03T14:58:18;0.30;;;0.30;;
15841;SDS011;8021;48.022;11.812;2022-11-03T15:00:47;0.30;;;0.30;;
15841;SDS011;8021;48.022;11.812;2022-11-03T15:03:14;0.30;;;0.30;;
15841;SDS011;8021;48.022;11.812;2022-11-03T15:05:42;0.30;;;0.20;;
15841;SDS011;8021;48.022;11.812;2022-11-03T15:08:13;0.30;;;0.30;;
15841;SDS011;8021;48.022;11.812;2022-11-03T15:10:41;0.30;;;0.30;;
15841;SDS011;8021;48.022;11.812;2022-11-03T15:13:09;0.30;;;0.30;;
15841;SDS011;8021;48.022;11.812;2022-11-03T15:15:37;0.38;;;0.38;;
15841;SDS011;8021;48.022;11.812;2022-11-03T15:18:07;0.30;;;0.30;;
15841;SDS011;8021;48.022;11.812;2022-11-03T15:20:35;0.30;;;0.30;;
15841;SDS011;8021;48.022;11.812;2022-11-03T15:23:02;0.30;;;0.30;;
15841;SDS011;8021;48.022;11.812;2022-11-03T15:25:50;0.30;;;0.30;;
15841;SDS011;8021;48.022;11.812;2022-11-03T15:28:17;0.35;;;0.35;;
15841;SDS011;8021;48.022;11.812;2022-11-03T15:30:46;0.30;;;0.30;;
15841;SDS011;8021;48.022;11.812;2022-11-03T15:33:15;0.30;;;0.30;;